METAR Data
IDs: Format: Raw Decoded Include TAF

Data at: 1307 UTC 07 Jul 2020

TIST 071253Z 07016G21KT 10SM SCT034 SCT044 30/24 A3000 RMK AO2 RAB29E38 SLP160 P0000 T03000239
TIST 071153Z 08010KT 10SM FEW023 FEW039 SCT049 29/24 A3000 RMK AO2 SLP158 60001 70004 T02940239 10300 20278 53012
TIST 070953Z AUTO 08011KT 10SM FEW060 28/24 A2997 RMK AO2 RAB11E20 SLP148 P0001 T02780239
TIST 070853Z AUTO 08008KT 10SM FEW021 28/24 A2996 RMK AO2 SLP146 60000 T02780244 55005
TIST 070753Z AUTO 06007KT 10SM SCT050 28/24 A2995 RMK AO2 RAB17E32 SLP143 P0000 T02780239
TIST 070653Z AUTO 07007KT 10SM FEW049 28/24 A2996 RMK AO2 SLP146 T02780239
TIST 070553Z AUTO 07011KT 10SM SCT044 BKN055 28/24 A2998 RMK AO2 RAE0456 SLP151 P0000 60000 T02780244 10294 20272 58012
TIST 070453Z AUTO 07010G19KT 10SM -RA FEW020 SCT025 OVC038 27/24 A2999 RMK AO2 RAB17 SLP157 P0000 T02720244
TIST 070449Z AUTO 06011G19KT 7SM -RA FEW020 BKN035 OVC042 27/24 A3000 RMK AO2 RAB17 P0000
TIST 070441Z AUTO 07011KT 5SM -RA SCT022 BKN028 OVC047 28/24 A3000 RMK AO2 RAB17 P0000 T02780239
TIST 070353Z AUTO 08009KT 10SM CLR 29/23 A3001 RMK AO2 SLP163 T02890233 403390278
TIST 070253Z AUTO 08009G16KT 10SM FEW027 29/23 A3003 RMK AO2 SLP168 T02890233 51009
TIST 070153Z AUTO 07013KT 10SM CLR 29/23 A3003 RMK AO2 SLP168 T02890233
TIST 070053Z 08015KT 10SM CLR 29/23 A3001 RMK AO2 SLP163 T02940233
TIST 062353Z 07012KT 10SM SCT050 29/24 A3000 RMK AO2 SLP159 60003 T02940239 10339 20289 53006
TIST 062253Z 06012KT 10SM CLR 29/24 A2999 RMK AO2 SLP155 T02940239
TIST 062153Z 07010KT 10SM CLR 30/24 A2998 RMK AO2 RAE2056 SLP152 P0000 T03000244
TIST 062053Z 07011KT 10SM -RA SCT030 29/25 A2998 RMK AO2 RAB38 SLP153 P0003 60003 T02890250 55006
TIST 061953Z 05012KT 10SM FEW040 FEW048 BKN060 32/24 A2998 RMK AO2 SLP152 T03170244
TIST 061853Z 05012G19KT 10SM FEW033 FEW043 33/23 A2999 RMK AO2 SLP157 T03330233
TIST 061753Z 06011KT 10SM SCT033 33/24 A3000 RMK AO2 SLP159 T03330239 10339 20306 58012
TIST 061653Z 07009KT 10SM FEW029 SCT040 33/24 A3002 RMK AO2 SLP165 T03330239
TIST 061553Z 06014G20KT 10SM FEW028 SCT034 33/24 A3003 RMK AO2 SLP170 T03330239
TIST 061453Z 06016G21KT 10SM FEW027 SCT033 BKN041 32/24 A3004 RMK AO2 SLP171 T03220239 53007
TIST 061353Z 07013G21KT 10SM FEW030 SCT037 32/23 A3003 RMK AO2 SLP168 T03170233
TIST 061253Z 06013G19KT 10SM FEW028 31/23 A3002 RMK AO2 SLP167 T03110233
TIST 061153Z 07010KT 10SM CLR 31/23 A3002 RMK AO2 SLP165 T03060233 10306 20278 53007
TIST 061053Z 08007KT 10SM CLR 29/23 A3001 RMK AO2 SLP162 T02890233
TIST 060953Z AUTO 07008KT 10SM FEW031 28/23 A3000 RMK AO2 SLP158 T02830233
TIST 060853Z AUTO 07006KT 10SM FEW023 SCT033 28/23 A3000 RMK AO2 SLP158 T02830233 55003
TIST 060753Z AUTO 07007KT 10SM CLR 28/23 A2999 RMK AO2 SLP156 T02830233
TIST 060653Z AUTO 07006KT 10SM CLR 28/23 A3000 RMK AO2 SLP158 T02830233
TIST 060553Z AUTO 08009KT 10SM CLR 28/23 A3001 RMK AO2 SLP161 T02830233 10289 20278 58012
TIST 060453Z AUTO 08009KT 10SM CLR 28/23 A3002 RMK AO2 SLP166 T02830228
TIST 060353Z AUTO 09008KT 10SM CLR 28/22 A3004 RMK AO2 SLP173 T02830222 403170256
TIST 060253Z AUTO 08010KT 10SM CLR 28/22 A3004 RMK AO2 SLP173 T02830222 51013
TIST 060153Z AUTO 08006KT 10SM CLR 28/23 A3003 RMK AO2 SLP170 T02830228